METAR Data
IDs: Format: Raw Decoded Include TAF

Data at: 1401 UTC 20 Oct 2021

KROS 201355Z AUTO 05012G17KT 10SM OVC009 10/08 A2997 RMK AO2 T00980076